Sloman Herakles — V2FY4 — position and weather

sailwx.info

Track history (hours):
 
Tides and Currents Weather Stations Pressure Air Temp Water Temp Dewpoint Dewpoint Depression Visibility Wind Speed Wind Dir Waves Ship Positions

Sloman Herakles

Last reported at 2015-Jul-06 21:22 UTC. Time now 2015-Jul-08 02:10 UTC.
Position N 40°29' W 074°15'.

Length 145 m; draft 6 m.

Type: Ship (hazmat cat A). MMSI: 305851000.

Date/timePositionNaut miles runAvg speedWind from/ knotsBaromVisibWave heightAir tempDewpointWater temp
2015-Jul-06 21:22N 40°29' W 074°15'7 8.0
2015-Jul-06 20:33N 40°29' W 074°06'10 9.7
2015-Jul-06 19:33N 40°27' W 073°54'7 7.4
2015-Jul-06 18:33N 40°28' W 073°44'4 4.1
2015-Jul-06 17:33N 40°30' W 073°39'0 0.0
2015-Jul-06 16:33N 40°30' W 073°39'0 0.0
2015-Jul-06 15:33N 40°30' W 073°40'0 0.0
2015-Jul-06 14:33N 40°30' W 073°40'0 0.0
2015-Jul-06 13:33N 40°30' W 073°40'0 0.0
2015-Jul-06 08:33N 40°30' W 073°39'0 0.0
2015-Jul-04 21:06N 40°30' W 073°40'0 0.0
2015-Jul-04 11:33N 40°30' W 073°40'0 0.0
2015-Jul-04 10:32N 40°30' W 073°40'0 0.0
2015-Jul-04 09:33N 40°30' W 073°40'0 0.0
2015-Jul-04 08:33N 40°30' W 073°40'0 0.1
2015-Jul-04 07:33N 40°30' W 073°39'0 0.0
2015-Jul-04 06:32N 40°30' W 073°39'0 0.0
2015-Jul-04 05:32N 40°30' W 073°39'0 0.0
2015-Jul-04 04:32N 40°30' W 073°39'0 0.0
2015-Jul-04 03:33N 40°30' W 073°39'0 0.1
2015-Jul-04 02:33N 40°30' W 073°39'0 0.0
2015-Jul-04 01:32N 40°30' W 073°39'0 0.0
2015-Jul-04 00:32N 40°30' W 073°39'0 0.0
2015-Jul-03 23:32N 40°30' W 073°40'0 0.0
2015-Jul-03 22:29N 40°30' W 073°40'0 0.0
2015-Jul-03 21:32N 40°30' W 073°39'0 0.0
2015-Jul-03 19:32N 40°30' W 073°39'0 0.0
2015-Jul-03 14:23N 40°30' W 073°39'0 0.0
2015-Jul-03 12:32N 40°30' W 073°40'0 0.1
2015-Jul-03 11:23N 40°30' W 073°40'0 0.0
2015-Jul-03 10:32N 40°30' W 073°40'0 0.0
2015-Jul-03 09:32N 40°30' W 073°40'0 0.0
2015-Jul-03 08:32N 40°30' W 073°40'0 0.1
2015-Jul-03 07:32N 40°30' W 073°39'0 0.0
2015-Jul-03 04:32N 40°30' W 073°39'0 0.0
2015-Jul-03 03:20N 40°30' W 073°39'0 0.0
2015-Jul-03 02:29N 40°30' W 073°39'0 0.1
2015-Jul-03 01:33N 40°30' W 073°40'9 8.6
2015-Jul-03 00:33N 40°28' W 073°51'10 9.7
2015-Jul-02 23:33N 40°33' W 074°02'6 5.5
2015-Jul-02 22:32N 40°38' W 074°04'0 0.1
2015-Jul-02 21:32N 40°38' W 074°04'0 0.1
2015-Jul-02 20:32N 40°38' W 074°04'0 0.0
2015-Jul-02 19:32N 40°38' W 074°04'0 0.0
2015-Jul-02 18:32N 40°38' W 074°04'0 0.0
2015-Jul-02 17:29N 40°38' W 074°04'0 0.0
2015-Jul-02 16:32N 40°38' W 074°04'0 0.0
2015-Jul-02 15:32N 40°38' W 074°04'0 0.0
2015-Jul-02 14:29N 40°38' W 074°04'0 0.1
2015-Jul-02 13:32N 40°38' W 074°04'0 0.0
2015-Jul-02 12:32N 40°38' W 074°04'0 0.1
2015-Jul-02 11:32N 40°38' W 074°04'0 0.1
2015-Jul-02 10:32N 40°38' W 074°04'0 0.1
2015-Jul-02 09:32N 40°38' W 074°04'0 0.0
2015-Jul-02 08:32N 40°38' W 074°04'0 0.0
2015-Jul-02 07:32N 40°38' W 074°04'0 0.0
2015-Jul-02 06:32N 40°38' W 074°04'0 0.0
2015-Jul-02 05:32N 40°38' W 074°04'0 0.0
2015-Jul-02 04:32N 40°38' W 074°04'0 0.0
2015-Jul-02 03:32N 40°38' W 074°04'0 0.0
2015-Jul-02 02:32N 40°38' W 074°04'1 0.8
2015-Jul-02 01:33N 40°38' W 074°03'9 8.9
2015-Jul-02 00:33N 40°29' W 074°04'  
2015-Jun-29 01:07N 40°30' W 074°14'9 9.3
2015-Jun-29 00:06N 40°29' W 074°01'6 8.7
2015-Jun-28 23:23N 40°27' W 073°54'12 6.3
2015-Jun-28 21:29N 40°30' W 073°38'1 0.5
2015-Jun-28 19:25N 40°30' W 073°40'0 0.0
2015-Jun-28 17:13N 40°30' W 073°40'0 0.0
2015-Jun-28 15:07N 40°30' W 073°40'0 0.0
2015-Jun-28 14:25N 40°30' W 073°40'4 0.4
2015-Jun-28 03:10N 40°28' W 073°44'4 6.3
2015-Jun-28 02:33N 40°28' W 073°49'1111.0
2015-Jun-28 01:33N 40°33' W 074°02'5 5.1
2015-Jun-28 00:32N 40°39' W 074°03'0 0.2
2015-Jun-27 23:32N 40°39' W 074°03'0 0.0
2015-Jun-27 22:32N 40°39' W 074°03'0 0.0
2015-Jun-27 21:32N 40°39' W 074°03'0 0.0
2015-Jun-27 20:32N 40°39' W 074°03'0 0.0
2015-Jun-27 19:32N 40°39' W 074°03'0 0.1
2015-Jun-27 18:32N 40°39' W 074°03'0 0.1
2015-Jun-27 17:32N 40°39' W 074°03'0 0.2
2015-Jun-27 16:32N 40°39' W 074°03'0 0.0
2015-Jun-27 15:32N 40°39' W 074°03'0 0.0
2015-Jun-27 14:32N 40°39' W 074°03'0 0.0
2015-Jun-27 13:32N 40°39' W 074°03'0 0.0
2015-Jun-27 12:32N 40°39' W 074°03'0 0.1
2015-Jun-27 11:32N 40°39' W 074°03'0 0.1
2015-Jun-27 10:32N 40°39' W 074°03'0 0.0
2015-Jun-27 09:32N 40°39' W 074°03'0 0.0
2015-Jun-27 08:32N 40°39' W 074°03'0 0.0
2015-Jun-27 07:32N 40°39' W 074°03'0 0.1
2015-Jun-27 06:32N 40°39' W 074°03'0 0.0
2015-Jun-27 05:32N 40°39' W 074°03'0 0.1
2015-Jun-27 04:32N 40°39' W 074°03'0 0.0
2015-Jun-27 03:32N 40°39' W 074°03'0 0.0
2015-Jun-27 02:32N 40°39' W 074°03'0 0.1
2015-Jun-27 01:32N 40°39' W 074°03'0 0.0
2015-Jun-27 00:32N 40°39' W 074°03'0 0.2
2015-Jun-26 23:29N 40°39' W 074°03'0 0.0
2015-Jun-26 22:32N 40°39' W 074°03'0 0.0
2015-Jun-26 21:32N 40°39' W 074°03'  
Track history (hours):
 
Tides and Currents Weather Stations Pressure Air Temp Water Temp Dewpoint Dewpoint Depression Visibility Wind Speed Wind Dir Waves Ship Positions

Sloman Herakles

Last reported at 2015-Jul-06 21:22 UTC. Time now 2015-Jul-08 02:10 UTC.
Position N 40°29' W 074°15'.

Length 145 m; draft 6 m.

Type: Ship (hazmat cat A). MMSI: 305851000.

Date/timePositionNaut miles runAvg speedWind from/ knotsBaromVisibWave heightAir tempDewpointWater temp
2015-Jul-06 21:22N 40°29' W 074°15'7 8.0
2015-Jul-06 20:33N 40°29' W 074°06'10 9.7
2015-Jul-06 19:33N 40°27' W 073°54'7 7.4
2015-Jul-06 18:33N 40°28' W 073°44'4 4.1
2015-Jul-06 17:33N 40°30' W 073°39'0 0.0
2015-Jul-06 16:33N 40°30' W 073°39'0 0.0
2015-Jul-06 15:33N 40°30' W 073°40'0 0.0
2015-Jul-06 14:33N 40°30' W 073°40'0 0.0
2015-Jul-06 13:33N 40°30' W 073°40'0 0.0
2015-Jul-06 08:33N 40°30' W 073°39'0 0.0
2015-Jul-04 21:06N 40°30' W 073°40'0 0.0
2015-Jul-04 11:33N 40°30' W 073°40'0 0.0
2015-Jul-04 10:32N 40°30' W 073°40'0 0.0
2015-Jul-04 09:33N 40°30' W 073°40'0 0.0
2015-Jul-04 08:33N 40°30' W 073°40'0 0.1
2015-Jul-04 07:33N 40°30' W 073°39'0 0.0
2015-Jul-04 06:32N 40°30' W 073°39'0 0.0
2015-Jul-04 05:32N 40°30' W 073°39'0 0.0
2015-Jul-04 04:32N 40°30' W 073°39'0 0.0
2015-Jul-04 03:33N 40°30' W 073°39'0 0.1
2015-Jul-04 02:33N 40°30' W 073°39'0 0.0
2015-Jul-04 01:32N 40°30' W 073°39'0 0.0
2015-Jul-04 00:32N 40°30' W 073°39'0 0.0
2015-Jul-03 23:32N 40°30' W 073°40'0 0.0
2015-Jul-03 22:29N 40°30' W 073°40'0 0.0
2015-Jul-03 21:32N 40°30' W 073°39'0 0.0
2015-Jul-03 19:32N 40°30' W 073°39'0 0.0
2015-Jul-03 14:23N 40°30' W 073°39'0 0.0
2015-Jul-03 12:32N 40°30' W 073°40'0 0.1
2015-Jul-03 11:23N 40°30' W 073°40'0 0.0
2015-Jul-03 10:32N 40°30' W 073°40'0 0.0
2015-Jul-03 09:32N 40°30' W 073°40'0 0.0
2015-Jul-03 08:32N 40°30' W 073°40'0 0.1
2015-Jul-03 07:32N 40°30' W 073°39'0 0.0
2015-Jul-03 04:32N 40°30' W 073°39'0 0.0
2015-Jul-03 03:20N 40°30' W 073°39'0 0.0
2015-Jul-03 02:29N 40°30' W 073°39'0 0.1
2015-Jul-03 01:33N 40°30' W 073°40'9 8.6
2015-Jul-03 00:33N 40°28' W 073°51'10 9.7
2015-Jul-02 23:33N 40°33' W 074°02'6 5.5
2015-Jul-02 22:32N 40°38' W 074°04'0 0.1
2015-Jul-02 21:32N 40°38' W 074°04'0 0.1
2015-Jul-02 20:32N 40°38' W 074°04'0 0.0
2015-Jul-02 19:32N 40°38' W 074°04'0 0.0
2015-Jul-02 18:32N 40°38' W 074°04'0 0.0
2015-Jul-02 17:29N 40°38' W 074°04'0 0.0
2015-Jul-02 16:32N 40°38' W 074°04'0 0.0
2015-Jul-02 15:32N 40°38' W 074°04'0 0.0
2015-Jul-02 14:29N 40°38' W 074°04'0 0.1
2015-Jul-02 13:32N 40°38' W 074°04'0 0.0
2015-Jul-02 12:32N 40°38' W 074°04'0 0.1
2015-Jul-02 11:32N 40°38' W 074°04'0 0.1
2015-Jul-02 10:32N 40°38' W 074°04'0 0.1
2015-Jul-02 09:32N 40°38' W 074°04'0 0.0
2015-Jul-02 08:32N 40°38' W 074°04'0 0.0
2015-Jul-02 07:32N 40°38' W 074°04'0 0.0
2015-Jul-02 06:32N 40°38' W 074°04'0 0.0
2015-Jul-02 05:32N 40°38' W 074°04'0 0.0
2015-Jul-02 04:32N 40°38' W 074°04'0 0.0
2015-Jul-02 03:32N 40°38' W 074°04'0 0.0
2015-Jul-02 02:32N 40°38' W 074°04'1 0.8
2015-Jul-02 01:33N 40°38' W 074°03'9 8.9
2015-Jul-02 00:33N 40°29' W 074°04'  
2015-Jun-29 01:07N 40°30' W 074°14'9 9.3
2015-Jun-29 00:06N 40°29' W 074°01'6 8.7
2015-Jun-28 23:23N 40°27' W 073°54'12 6.3
2015-Jun-28 21:29N 40°30' W 073°38'1 0.5
2015-Jun-28 19:25N 40°30' W 073°40'0 0.0
2015-Jun-28 17:13N 40°30' W 073°40'0 0.0
2015-Jun-28 15:07N 40°30' W 073°40'0 0.0
2015-Jun-28 14:25N 40°30' W 073°40'4 0.4
2015-Jun-28 03:10N 40°28' W 073°44'4 6.3
2015-Jun-28 02:33N 40°28' W 073°49'1111.0
2015-Jun-28 01:33N 40°33' W 074°02'5 5.1
2015-Jun-28 00:32N 40°39' W 074°03'0 0.2
2015-Jun-27 23:32N 40°39' W 074°03'0 0.0
2015-Jun-27 22:32N 40°39' W 074°03'0 0.0
2015-Jun-27 21:32N 40°39' W 074°03'0 0.0
2015-Jun-27 20:32N 40°39' W 074°03'0 0.0
2015-Jun-27 19:32N 40°39' W 074°03'0 0.1
2015-Jun-27 18:32N 40°39' W 074°03'0 0.1
2015-Jun-27 17:32N 40°39' W 074°03'0 0.2
2015-Jun-27 16:32N 40°39' W 074°03'0 0.0
2015-Jun-27 15:32N 40°39' W 074°03'0 0.0
2015-Jun-27 14:32N 40°39' W 074°03'0 0.0
2015-Jun-27 13:32N 40°39' W 074°03'0 0.0
2015-Jun-27 12:32N 40°39' W 074°03'0 0.1
2015-Jun-27 11:32N 40°39' W 074°03'0 0.1
2015-Jun-27 10:32N 40°39' W 074°03'0 0.0
2015-Jun-27 09:32N 40°39' W 074°03'0 0.0
2015-Jun-27 08:32N 40°39' W 074°03'0 0.0
2015-Jun-27 07:32N 40°39' W 074°03'0 0.1
2015-Jun-27 06:32N 40°39' W 074°03'0 0.0
2015-Jun-27 05:32N 40°39' W 074°03'0 0.1
2015-Jun-27 04:32N 40°39' W 074°03'0 0.0
2015-Jun-27 03:32N 40°39' W 074°03'0 0.0
2015-Jun-27 02:32N 40°39' W 074°03'0 0.1
2015-Jun-27 01:32N 40°39' W 074°03'0 0.0
2015-Jun-27 00:32N 40°39' W 074°03'0 0.2
2015-Jun-26 23:29N 40°39' W 074°03'0 0.0
2015-Jun-26 22:32N 40°39' W 074°03'0 0.0
2015-Jun-26 21:32N 40°39' W 074°03'  

Dump ship's entire track history